Time;durP1;ratioP1;P1;durP2;ratioP2;P2;SDS_P1;SDS_P2;PMS_P1;PMS_P2;Temp;Humidity;BMP_temperature;BMP_pressure;BME280_temperature;BME280_humidity;BME280_pressure;Samples;Min_cycle;Max_cycle;Signal;HPM_P1;HPM_P2
2021/12/16 00:03:06;;;;;;;59.70;28.80;;;;;;;6.97;91.26;101534.13;87454;1287;82430;-68
2021/12/16 00:05:30;;;;;;;61.70;29.40;;;;;;;6.96;91.25;101533.84;87597;1284;98815;-67
2021/12/16 00:07:52;;;;;;;63.10;28.50;;;;;;;6.94;91.15;101534.36;87790;1276;88497;-67
2021/12/16 00:10:14;;;;;;;60.50;29.40;;;;;;;6.95;91.23;101535.36;87825;1283;95063;-67
2021/12/16 00:32:28;;;;;;;72.10;32.10;;;;;;;6.97;91.29;101523.16;87838;1279;87588;-64
2021/12/16 00:34:39;;;;;;;64.00;31.10;;;;;;;6.99;91.31;101519.63;87811;1282;93239;-64
2021/12/16 00:36:51;;;;;;;65.20;30.80;;;;;;;7.01;91.33;101515.45;87871;1285;79779;-67
2021/12/16 00:39:00;;;;;;;64.40;29.40;;;;;;;7.02;91.31;101516.45;87864;1274;80723;-67
2021/12/16 00:41:11;;;;;;;66.80;31.00;;;;;;;7.01;91.33;101516.91;87838;1281;98217;-68
2021/12/16 00:43:26;;;;;;;65.90;31.40;;;;;;;7.02;91.23;101515.90;87857;1283;87183;-68
2021/12/16 00:45:42;;;;;;;68.10;32.30;;;;;;;7.02;91.32;101507.98;87814;1286;95207;-68
2021/12/16 00:47:57;;;;;;;63.30;30.10;;;;;;;7.04;91.18;101511.58;87823;1281;80284;-67
2021/12/16 00:50:22;;;;;;;68.20;31.50;;;;;;;7.00;91.16;101508.70;87861;1283;79652;-67
2021/12/16 00:55:09;;;;;;;63.10;30.50;;;;;;;6.97;91.18;101504.95;87840;1284;88655;-69
2021/12/16 00:57:21;;;;;;;70.70;31.00;;;;;;;6.97;91.21;101502.20;87747;1284;94202;-69
2021/12/16 00:59:35;;;;;;;60.60;29.50;;;;;;;6.97;91.18;101505.42;87823;1281;81539;-67
2021/12/16 01:01:55;;;;;;;56.10;28.60;;;;;;;6.98;91.19;101507.17;87735;1285;83088;-65
2021/12/16 01:06:56;;;;;;;64.20;29.50;;;;;;;6.95;91.26;101507.83;87845;1279;88071;-64
2021/12/16 01:09:33;;;;;;;66.10;29.90;;;;;;;6.94;91.33;101509.52;87818;1281;95119;-63
2021/12/16 01:34:18;;;;;;;57.00;28.90;;;;;;;6.89;91.30;101479.88;87819;1282;95780;-67
2021/12/16 01:36:46;;;;;;;58.30;28.40;;;;;;;6.89;91.39;101479.46;87844;1285;81274;-68
2021/12/16 01:51:21;;;;;;;58.10;29.20;;;;;;;6.85;91.69;101470.04;87846;1276;82196;-65
2021/12/16 01:54:03;;;;;;;57.40;28.40;;;;;;;6.88;91.68;101474.23;87805;1276;97483;-64
2021/12/16 01:56:24;;;;;;;57.50;28.80;;;;;;;6.88;91.78;101469.58;87808;1283;88705;-63
2021/12/16 01:58:37;;;;;;;56.80;29.70;;;;;;;6.90;91.63;101471.16;87830;1279;95131;-63
2021/12/16 02:01:00;;;;;;;61.30;30.90;;;;;;;6.89;91.67;101474.13;87830;1286;81826;-65
2021/12/16 02:03:15;;;;;;;54.40;28.40;;;;;;;6.92;91.71;101477.63;87852;1291;80642;-64
2021/12/16 02:05:37;;;;;;;56.90;29.20;;;;;;;6.89;91.65;101481.08;87850;1285;100020;-63
2021/12/16 02:08:13;;;;;;;58.60;28.90;;;;;;;6.92;91.73;101484.89;87810;1281;88349;-63
2021/12/16 02:10:33;;;;;;;59.40;29.60;;;;;;;6.96;91.63;101485.67;87852;1284;94877;-63
2021/12/16 02:12:56;;;;;;;55.30;27.10;;;;;;;6.99;91.74;101486.29;87843;1281;79693;-67
2021/12/16 02:27:34;;;;;;;53.10;28.30;;;;;;;7.07;91.69;101496.98;87895;1282;82444;-67
2021/12/16 02:30:02;;;;;;;49.90;27.90;;;;;;;7.10;91.69;101498.48;87856;1282;97936;-67
2021/12/16 02:32:28;;;;;;;57.70;29.40;;;;;;;7.11;91.74;101493.44;87863;1274;89338;-64
2021/12/16 02:34:56;;;;;;;54.50;28.10;;;;;;;7.12;91.66;101483.97;87838;1288;95446;-64
2021/12/16 02:37:16;;;;;;;54.10;28.90;;;;;;;7.12;91.65;101486.83;87823;1285;81120;-67
2021/12/16 02:39:29;;;;;;;51.60;27.20;;;;;;;7.13;91.66;101486.21;87834;1285;82081;-68
2021/12/16 02:41:41;;;;;;;46.40;26.20;;;;;;;7.16;91.67;101487.41;87701;1285;99456;-68
2021/12/16 02:48:45;;;;;;;50.80;26.70;;;;;;;7.19;91.84;101488.02;87798;1289;82678;-64
2021/12/16 02:50:55;;;;;;;52.40;28.00;;;;;;;7.22;91.66;101487.23;87859;1282;82411;-64
2021/12/16 02:53:04;;;;;;;47.10;27.60;;;;;;;7.25;91.57;101486.95;87814;1279;98967;-64
2021/12/16 02:55:17;;;;;;;50.50;26.80;;;;;;;7.27;91.66;101484.73;87863;1283;87072;-64
2021/12/16 02:57:27;;;;;;;52.70;27.20;;;;;;;7.27;91.66;101492.25;87860;1284;94974;-67
2021/12/16 02:59:36;;;;;;;52.00;29.40;;;;;;;7.28;91.73;101488.27;87838;1284;81886;-70
2021/12/16 03:01:52;;;;;;;53.80;27.70;;;;;;;7.27;91.68;101490.91;87833;1281;80979;-64
2021/12/16 03:04:03;;;;;;;49.10;26.60;;;;;;;7.26;91.65;101490.77;87829;1286;99141;-65
2021/12/16 03:06:13;;;;;;;49.80;26.80;;;;;;;7.25;91.84;101486.41;87847;1286;87955;-63
2021/12/16 03:08:26;;;;;;;46.40;26.60;;;;;;;7.28;91.64;101490.05;87799;1283;95247;-69
2021/12/16 03:11:02;;;;;;;47.80;27.60;;;;;;;7.30;91.70;101495.58;87842;1283;79745;-68
2021/12/16 03:13:23;;;;;;;42.70;24.50;;;;;;;7.26;91.79;101492.19;87846;1284;82993;-68
2021/12/16 03:15:56;;;;;;;42.20;25.50;;;;;;;7.24;91.87;101495.86;87811;1283;100715;-64
2021/12/16 03:18:18;;;;;;;44.70;25.40;;;;;;;7.23;91.79;101495.19;87858;1283;88974;-64
2021/12/16 03:20:37;;;;;;;46.50;26.10;;;;;;;7.23;91.85;101491.19;87839;1284;95556;-65
2021/12/16 03:22:59;;;;;;;45.40;26.60;;;;;;;7.24;91.85;101490.77;87697;1287;81417;-65
2021/12/16 03:25:20;;;;;;;43.00;26.10;;;;;;;7.26;91.68;101486.09;87811;1284;82560;-64
2021/12/16 03:27:59;;;;;;;44.10;27.10;;;;;;;7.28;91.89;101492.16;87805;1284;99739;-68
2021/12/16 03:30:49;;;;;;;44.40;26.50;;;;;;;7.30;91.87;101487.89;87844;1283;86850;-67
2021/12/16 03:33:21;;;;;;;45.10;26.60;;;;;;;7.31;91.86;101485.64;87739;1284;96431;-67
2021/12/16 03:35:34;;;;;;;43.30;25.80;;;;;;;7.33;91.79;101483.67;87793;1285;80314;-68
2021/12/16 03:37:44;;;;;;;44.00;26.90;;;;;;;7.35;91.73;101486.73;87817;1284;80742;-63
2021/12/16 03:40:00;;;;;;;47.80;27.40;;;;;;;7.35;91.69;101487.54;87815;1282;99869;-65
2021/12/16 03:42:13;;;;;;;40.90;25.30;;;;;;;7.34;91.61;101492.55;87829;1285;86886;-65
2021/12/16 03:44:32;;;;;;;36.30;21.20;;;;;;;7.36;91.66;101489.33;87817;1284;95070;-63
2021/12/16 03:46:47;;;;;;;45.40;26.50;;;;;;;7.34;91.64;101488.79;87845;1282;81147;-64
2021/12/16 03:49:05;;;;;;;44.20;27.30;;;;;;;7.34;91.61;101484.16;87847;1275;80796;-64
2021/12/16 03:51:31;;;;;;;46.90;27.70;;;;;;;7.31;91.66;101482.77;87808;1284;97984;-63
2021/12/16 03:53:42;;;;;;;44.20;26.00;;;;;;;7.29;91.61;101482.81;87850;1284;88494;-64
2021/12/16 03:55:55;;;;;;;43.30;27.20;;;;;;;7.27;91.64;101481.88;87843;1284;95338;-64
2021/12/16 03:58:07;;;;;;;47.90;26.30;;;;;;;7.25;91.71;101478.71;87833;1282;79183;-64
2021/12/16 04:00:24;;;;;;;45.10;26.70;;;;;;;7.28;91.49;101476.59;87832;1285;81666;-64
2021/12/16 04:02:40;;;;;;;41.70;25.50;;;;;;;7.31;91.64;101477.21;87793;1282;97370;-65
2021/12/16 04:04:51;;;;;;;48.30;27.20;;;;;;;7.32;91.45;101472.41;87870;1284;86456;-65
2021/12/16 04:07:04;;;;;;;44.90;26.50;;;;;;;7.35;91.50;101469.15;87830;1285;93846;-64
2021/12/16 04:09:16;;;;;;;42.40;26.30;;;;;;;7.36;91.44;101469.94;87817;1288;79813;-64
2021/12/16 04:11:38;;;;;;;45.90;25.70;;;;;;;7.37;91.44;101467.33;87874;1284;83200;-68
2021/12/16 04:13:59;;;;;;;45.90;27.30;;;;;;;7.39;91.39;101467.74;87834;1284;99440;-67
2021/12/16 04:16:09;;;;;;;42.70;25.80;;;;;;;7.38;91.39;101465.44;87770;1284;89434;-67
2021/12/16 04:18:22;;;;;;;45.30;27.70;;;;;;;7.39;91.38;101466.56;87764;1284;95603;-68
2021/12/16 04:20:35;;;;;;;45.30;27.00;;;;;;;7.38;91.45;101450.76;87815;1279;82720;-67
2021/12/16 04:22:46;;;;;;;44.80;25.50;;;;;;;7.41;91.36;101450.46;87862;1282;82730;-66
2021/12/16 04:24:58;;;;;;;43.70;26.30;;;;;;;7.39;91.36;101450.81;87813;1282;98450;-68
2021/12/16 04:27:12;;;;;;;43.70;26.90;;;;;;;7.40;91.36;101446.59;87867;1284;89368;-64
2021/12/16 04:29:23;;;;;;;48.10;27.60;;;;;;;7.41;91.31;101451.38;87844;1282;94689;-65
2021/12/16 04:31:37;;;;;;;45.10;26.70;;;;;;;7.38;91.35;101454.30;87830;1286;82031;-64
2021/12/16 04:33:44;;;;;;;;;;;;;;;7.37;91.26;101450.81;87740;1285;80416;-64
2021/12/16 04:35:54;;;;;;;53.60;28.30;;;;;;;7.34;91.16;101446.85;87831;1284;97934;-64
2021/12/16 04:38:04;;;;;;;48.40;27.80;;;;;;;7.35;91.44;101448.13;87873;1279;86790;-67
2021/12/16 04:40:16;;;;;;;46.60;27.80;;;;;;;7.36;91.23;101445.05;87854;1282;94348;-67
2021/12/16 04:42:26;;;;;;;49.70;29.30;;;;;;;7.34;91.03;101445.52;87867;1285;81127;-67
2021/12/16 04:44:35;;;;;;;45.80;28.10;;;;;;;7.29;91.26;101446.04;87846;1284;82221;-67
2021/12/16 04:46:46;;;;;;;46.60;28.00;;;;;;;7.29;91.16;101446.98;87890;1279;100444;-67
2021/12/16 04:49:00;;;;;;;48.50;29.30;;;;;;;7.28;91.18;101440.55;87842;1279;88791;-67
2021/12/16 04:51:12;;;;;;;47.40;28.90;;;;;;;7.27;91.21;101442.14;87831;1284;93213;-67
2021/12/16 04:53:23;;;;;;;47.60;29.00;;;;;;;7.25;91.24;101437.77;87858;1286;79325;-67
2021/12/16 04:55:36;;;;;;;49.80;29.50;;;;;;;7.25;91.11;101430.84;87836;1282;82615;-68
2021/12/16 04:57:45;;;;;;;47.10;28.10;;;;;;;7.24;91.21;101426.30;87844;1286;99735;-67
2021/12/16 04:59:57;;;;;;;46.30;30.70;;;;;;;7.24;91.15;101429.72;87853;1284;88454;-66
2021/12/16 05:02:15;;;;;;;47.80;29.40;;;;;;;7.24;91.10;101428.98;87815;1282;94813;-63
2021/12/16 05:04:25;;;;;;;47.90;28.90;;;;;;;7.23;91.14;101437.50;87822;1285;82342;-63
2021/12/16 05:06:35;;;;;;;45.80;29.10;;;;;;;7.22;91.16;101441.19;87865;1282;81446;-66
2021/12/16 05:08:44;;;;;;;45.30;28.40;;;;;;;7.24;91.20;101435.41;87828;1282;98660;-65
2021/12/16 05:11:00;;;;;;;49.30;29.40;;;;;;;7.24;91.19;101435.63;87824;1283;87330;-64
2021/12/16 05:13:09;;;;;;;46.90;28.60;;;;;;;7.23;91.11;101436.71;87856;1282;94237;-64
2021/12/16 05:15:24;;;;;;;45.90;28.70;;;;;;;7.23;91.22;101438.58;87838;1279;81015;-62
2021/12/16 05:17:39;;;;;;;47.10;29.00;;;;;;;7.23;91.07;101439.86;87606;1284;354136;-67
2021/12/16 05:19:51;;;;;;;44.90;27.50;;;;;;;7.24;91.04;101439.17;87831;1285;100187;-68
2021/12/16 05:24:29;;;;;;;42.60;28.20;;;;;;;7.23;91.21;101443.55;87803;1283;94745;-67
2021/12/16 05:26:41;;;;;;;45.20;27.10;;;;;;;7.24;90.86;101446.38;87834;1282;81156;-68
2021/12/16 05:28:55;;;;;;;45.60;29.10;;;;;;;7.22;91.06;101446.87;87832;1285;83902;-68
2021/12/16 05:31:09;;;;;;;43.30;27.80;;;;;;;7.23;91.18;101445.02;87860;1279;97995;-67
2021/12/16 05:33:19;;;;;;;41.80;27.10;;;;;;;7.25;91.17;101449.09;87858;1285;87194;-67
2021/12/16 05:35:29;;;;;;;43.50;28.40;;;;;;;7.22;90.95;101445.82;87704;1283;96628;-67
2021/12/16 05:37:44;;;;;;;41.40;26.70;;;;;;;7.22;91.13;101440.08;87890;1285;81957;-67
2021/12/16 05:39:57;;;;;;;40.40;27.10;;;;;;;7.22;91.02;101441.69;87899;1284;82688;-66
2021/12/16 05:42:07;;;;;;;40.30;26.10;;;;;;;7.19;91.10;101439.34;87884;1285;98025;-64
2021/12/16 05:44:19;;;;;;;41.90;26.90;;;;;;;7.19;91.16;101439.14;87862;1284;88770;-65
2021/12/16 05:46:31;;;;;;;39.30;27.10;;;;;;;7.20;91.16;101431.69;87853;1284;94775;-69
2021/12/16 05:48:43;;;;;;;39.50;26.70;;;;;;;7.22;91.10;101430.24;87851;1282;81911;-67
2021/12/16 05:50:57;;;;;;;36.70;25.20;;;;;;;7.22;91.16;101435.22;87860;1288;80175;-69
2021/12/16 05:53:07;;;;;;;40.20;27.70;;;;;;;7.24;91.08;101437.73;87877;1285;99098;-67
2021/12/16 05:55:19;;;;;;;44.70;27.10;;;;;;;7.23;91.27;101433.58;87860;1288;88749;-66
2021/12/16 05:57:32;;;;;;;38.90;26.50;;;;;;;7.26;91.13;101434.73;87835;1286;94749;-61
2021/12/16 05:59:41;;;;;;;39.80;26.10;;;;;;;7.27;91.03;101440.39;87815;1283;81967;-62
2021/12/16 06:01:53;;;;;;;40.50;26.10;;;;;;;7.23;91.13;101432.66;87853;1286;82283;-64
2021/12/16 06:04:07;;;;;;;40.80;26.50;;;;;;;7.20;91.25;101430.30;87860;1277;100269;-61
2021/12/16 06:06:19;;;;;;;42.50;27.20;;;;;;;7.20;91.14;101433.98;87854;1284;87078;-64
2021/12/16 06:08:29;;;;;;;42.40;28.20;;;;;;;7.20;91.22;101433.66;87858;1280;93246;-68
2021/12/16 06:13:02;;;;;;;40.60;26.80;;;;;;;7.22;91.04;101434.56;87844;1284;82499;-67
2021/12/16 06:15:23;;;;;;;40.80;27.60;;;;;;;7.20;91.16;101433.96;87884;1282;98622;-70
2021/12/16 06:22:38;;;;;;;39.60;27.30;;;;;;;7.21;91.08;101447.73;87855;1285;82300;-62
2021/12/16 06:27:15;;;;;;;40.10;26.10;;;;;;;7.23;91.02;101448.75;87865;1280;97874;-69
2021/12/16 06:29:25;;;;;;;42.10;26.80;;;;;;;7.22;90.95;101455.46;87871;1282;87645;-69
2021/12/16 06:31:34;;;;;;;39.30;26.20;;;;;;;7.21;91.06;101451.79;87880;1286;95560;-62
2021/12/16 06:33:46;;;;;;;38.20;26.20;;;;;;;7.23;91.01;101450.39;87831;1286;81468;-61
2021/12/16 06:35:57;;;;;;;38.90;25.90;;;;;;;7.22;91.09;101452.66;87870;1285;82501;-63
2021/12/16 06:38:09;;;;;;;39.20;27.00;;;;;;;7.20;91.09;101456.09;87870;1287;100132;-69
2021/12/16 06:40:19;;;;;;;41.90;27.70;;;;;;;7.19;91.19;101459.34;87877;1284;88977;-68
2021/12/16 06:42:34;;;;;;;40.60;26.10;;;;;;;7.16;91.09;101461.04;87899;1282;94616;-62
2021/12/16 06:44:51;;;;;;;39.60;26.00;;;;;;;7.18;91.05;101464.63;87864;1283;82595;-66
2021/12/16 06:47:05;;;;;;;39.30;27.00;;;;;;;7.21;91.16;101464.52;87901;1276;81266;-67
2021/12/16 06:49:17;;;;;;;39.20;27.20;;;;;;;7.21;90.99;101470.48;87834;1273;97391;-67
2021/12/16 06:51:36;;;;;;;40.30;26.90;;;;;;;7.20;91.03;101468.09;87846;1282;88083;-67
2021/12/16 06:53:53;;;;;;;38.80;25.80;;;;;;;7.13;91.08;101463.61;87850;1279;93716;-68
2021/12/16 06:56:11;;;;;;;40.70;27.30;;;;;;;7.14;91.07;101464.50;87854;1282;82503;-68
2021/12/16 06:58:28;;;;;;;38.50;26.00;;;;;;;7.16;91.10;101461.91;87866;1282;83134;-63
2021/12/16 07:00:41;;;;;;;37.30;25.80;;;;;;;7.19;91.06;101462.00;87845;1282;98054;-68
2021/12/16 07:03:00;;;;;;;39.80;26.10;;;;;;;7.20;91.12;101465.53;87713;1288;89510;-62
2021/12/16 07:05:16;;;;;;;38.80;26.40;;;;;;;7.20;91.11;101466.61;87836;1282;93103;-61
2021/12/16 07:07:28;;;;;;;42.40;27.10;;;;;;;7.20;91.05;101463.08;87865;1284;82689;-62
2021/12/16 07:09:42;;;;;;;37.50;26.20;;;;;;;7.18;91.17;101456.20;87896;1283;82202;-62
2021/12/16 07:11:57;;;;;;;38.70;26.90;;;;;;;7.21;91.40;101461.80;87827;1282;98538;-62
2021/12/16 07:14:13;;;;;;;37.90;26.20;;;;;;;7.25;91.21;101454.53;87852;1285;88305;-62
2021/12/16 07:16:23;;;;;;;37.10;25.00;;;;;;;7.26;91.08;101452.95;87861;1288;93679;-66
2021/12/16 07:18:53;;;;;;;38.50;27.20;;;;;;;7.27;91.17;101451.39;87861;1283;81224;-67
2021/12/16 07:21:03;;;;;;;37.00;25.80;;;;;;;7.30;91.09;101450.62;87877;1288;83426;-67
2021/12/16 07:23:15;;;;;;;34.30;25.20;;;;;;;7.30;91.06;101446.31;87757;1283;99300;-62
2021/12/16 07:25:24;;;;;;;34.00;24.80;;;;;;;7.30;91.07;101435.57;87860;1279;88106;-67
2021/12/16 07:27:34;;;;;;;37.40;25.60;;;;;;;7.30;91.12;101433.40;87870;1287;95770;-62
2021/12/16 07:29:44;;;;;;;36.90;26.40;;;;;;;7.31;91.15;101440.68;87860;1282;79407;-67
2021/12/16 07:31:53;;;;;;;34.60;24.70;;;;;;;7.28;91.29;101443.30;87867;1285;82789;-62
2021/12/16 07:34:03;;;;;;;35.20;25.50;;;;;;;7.30;91.13;101441.83;87872;1282;99858;-62
2021/12/16 07:36:18;;;;;;;37.70;24.00;;;;;;;7.35;91.23;101440.83;87848;1287;89035;-62
2021/12/16 07:38:30;;;;;;;33.00;23.10;;;;;;;7.40;91.28;101437.48;87856;1284;95156;-62
2021/12/16 07:40:41;;;;;;;32.80;24.00;;;;;;;7.39;91.10;101432.74;87886;1286;80926;-62
2021/12/16 07:43:10;;;;;;;33.00;23.30;;;;;;;7.38;91.03;101430.73;87884;1284;80165;-62
2021/12/16 07:45:20;;;;;;;34.60;23.90;;;;;;;7.39;91.10;101431.66;87847;1286;99620;-61
2021/12/16 07:47:29;;;;;;;35.90;24.00;;;;;;;7.39;91.20;101431.13;87854;1287;87344;-62
2021/12/16 07:49:44;;;;;;;36.70;24.30;;;;;;;7.42;91.25;101423.85;87849;1282;95137;-61
2021/12/16 07:51:54;;;;;;;35.00;24.90;;;;;;;7.46;91.00;101420.79;87919;1286;81458;-62
2021/12/16 07:54:07;;;;;;;34.30;23.80;;;;;;;7.48;91.12;101420.89;87876;1285;83089;-63
2021/12/16 07:56:22;;;;;;;37.00;25.00;;;;;;;7.51;91.08;101426.52;87910;1286;99242;-66
2021/12/16 07:58:35;;;;;;;34.80;23.70;;;;;;;7.51;91.05;101430.51;87879;1285;88644;-67
2021/12/16 08:00:48;;;;;;;35.30;25.30;;;;;;;7.51;91.02;101436.39;87709;1289;95544;-66
2021/12/16 08:02:57;;;;;;;37.10;24.80;;;;;;;7.54;90.88;101433.84;87860;1282;83163;-62
2021/12/16 08:05:12;;;;;;;33.60;23.70;;;;;;;7.56;90.98;101436.12;87891;1282;81182;-62
2021/12/16 08:07:25;;;;;;;36.30;24.80;;;;;;;7.56;91.06;101433.95;87915;1277;98599;-67
2021/12/16 08:09:40;;;;;;;31.60;23.00;;;;;;;7.57;91.09;101438.52;87884;1284;88794;-67
2021/12/16 08:11:52;;;;;;;36.20;21.80;;;;;;;7.60;90.95;101443.42;87901;1286;94677;-67
2021/12/16 08:14:02;;;;;;;31.30;21.30;;;;;;;7.60;91.08;101443.67;87864;1287;81115;-69
2021/12/16 08:16:11;;;;;;;32.60;22.70;;;;;;;7.64;91.00;101446.08;87888;1283;80487;-67
2021/12/16 08:18:21;;;;;;;33.50;21.90;;;;;;;7.69;90.93;101443.27;87877;1284;98542;-68
2021/12/16 08:20:34;;;;;;;30.70;21.20;;;;;;;7.70;91.14;101442.64;87891;1284;89000;-62
2021/12/16 08:22:44;;;;;;;32.80;21.20;;;;;;;7.69;91.00;101436.63;87868;1284;94208;-67
2021/12/16 08:24:53;;;;;;;31.30;21.60;;;;;;;7.67;91.05;101430.38;87873;1285;81805;-66
2021/12/16 08:27:03;;;;;;;29.20;20.80;;;;;;;7.71;90.93;101430.55;87903;1286;80284;-63
2021/12/16 08:29:12;;;;;;;30.50;20.00;;;;;;;7.76;90.85;101441.94;87881;1288;99005;-64
2021/12/16 08:31:22;;;;;;;29.70;20.00;;;;;;;7.74;91.15;101446.28;87864;1282;87883;-62
2021/12/16 08:33:31;;;;;;;30.90;20.10;;;;;;;7.77;91.04;101453.19;87903;1283;93117;-62
2021/12/16 08:35:42;;;;;;;26.60;19.50;;;;;;;7.80;91.00;101452.90;87886;1281;79920;-62
2021/12/16 08:37:52;;;;;;;29.90;20.70;;;;;;;7.83;90.87;101457.38;87901;1286;82779;-62
2021/12/16 08:40:02;;;;;;;29.30;20.20;;;;;;;7.86;90.89;101458.90;87879;1282;99962;-62
2021/12/16 08:42:14;;;;;;;29.00;19.80;;;;;;;7.88;90.77;101456.39;87891;1286;88758;-64
2021/12/16 08:44:27;;;;;;;28.20;19.80;;;;;;;7.85;90.81;101456.66;87890;1284;93859;-64
2021/12/16 08:46:41;;;;;;;26.60;19.90;;;;;;;7.78;90.74;101462.89;87909;1287;78872;-63
2021/12/16 08:48:54;;;;;;;32.00;20.70;;;;;;;7.74;90.83;101467.57;87836;1285;82538;-65
2021/12/16 08:51:04;;;;;;;27.80;19.70;;;;;;;7.70;90.96;101474.40;87891;1285;97711;-64
2021/12/16 08:53:14;;;;;;;26.80;19.40;;;;;;;7.65;90.86;101482.73;87922;1283;87671;-67
2021/12/16 08:55:23;;;;;;;27.50;19.40;;;;;;;7.64;90.98;101478.73;87878;1283;93797;-64
2021/12/16 08:57:35;;;;;;;28.00;18.20;;;;;;;7.61;91.02;101468.64;87898;1283;79686;-62
2021/12/16 08:59:49;;;;;;;28.70;18.80;;;;;;;7.67;91.11;101462.71;87893;1283;81949;-63
2021/12/16 09:02:02;;;;;;;26.70;19.00;;;;;;;7.73;91.18;101452.27;87831;1286;99378;-68
2021/12/16 09:04:12;;;;;;;27.00;16.80;;;;;;;7.76;91.17;101456.69;87864;1285;88989;-65
2021/12/16 09:06:26;;;;;;;25.30;17.80;;;;;;;7.71;91.13;101459.05;87897;1282;95159;-63
2021/12/16 09:08:35;;;;;;;25.50;18.10;;;;;;;7.66;91.23;101459.20;87887;1283;79665;-63
2021/12/16 09:10:48;;;;;;;25.00;17.10;;;;;;;7.74;91.16;101456.14;87867;1285;80504;-66
2021/12/16 09:13:03;;;;;;;28.20;18.50;;;;;;;7.75;91.16;101444.95;87900;1284;99847;-66
2021/12/16 09:15:16;;;;;;;27.70;18.20;;;;;;;7.81;91.06;101446.89;87870;1285;88010;-67
2021/12/16 09:17:25;;;;;;;27.10;18.70;;;;;;;7.85;91.09;101438.44;87880;1284;95284;-66
2021/12/16 09:19:34;;;;;;;24.90;17.40;;;;;;;7.88;91.07;101445.42;87881;1286;81066;-67
2021/12/16 09:21:43;;;;;;;25.20;17.70;;;;;;;7.89;90.93;101444.59;87929;1283;82760;-69
2021/12/16 09:23:54;;;;;;;26.00;17.10;;;;;;;7.87;90.94;101444.11;87864;1287;98879;-67
2021/12/16 09:26:04;;;;;;;20.90;15.10;;;;;;;7.89;90.98;101435.81;87717;1289;88840;-66
2021/12/16 09:28:15;;;;;;;24.10;16.10;;;;;;;7.97;90.91;101433.05;87911;1286;95793;-66
2021/12/16 09:30:30;;;;;;;23.80;15.40;;;;;;;7.98;90.94;101434.45;87904;1286;78577;-66
2021/12/16 09:32:39;;;;;;;22.20;16.10;;;;;;;7.96;90.93;101442.70;87906;1282;80354;-68
2021/12/16 09:34:51;;;;;;;20.60;14.60;;;;;;;7.95;91.03;101444.92;87895;1282;98877;-66
2021/12/16 09:37:01;;;;;;;21.50;14.30;;;;;;;7.98;91.03;101440.73;87878;1286;87755;-67
2021/12/16 09:39:16;;;;;;;20.90;15.00;;;;;;;7.97;91.11;101445.33;87874;1282;93882;-67
2021/12/16 09:41:31;;;;;;;22.90;15.60;;;;;;;7.93;90.91;101449.41;87844;1286;78736;-67
2021/12/16 09:43:45;;;;;;;21.40;16.80;;;;;;;7.91;91.16;101439.10;87896;1283;81584;-68
2021/12/16 09:46:00;;;;;;;20.80;15.30;;;;;;;7.97;91.10;101437.03;87761;1287;100439;-66
2021/12/16 09:48:13;;;;;;;23.90;16.30;;;;;;;7.92;91.14;101447.21;87872;1286;87645;-67
2021/12/16 09:50:30;;;;;;;24.20;16.40;;;;;;;7.88;91.17;101450.09;87872;1282;95150;-67
2021/12/16 09:52:39;;;;;;;23.10;15.60;;;;;;;7.83;91.14;101457.20;87884;1282;81424;-67
2021/12/16 09:54:49;;;;;;;22.00;16.20;;;;;;;7.84;91.12;101455.38;87883;1286;83037;-67
2021/12/16 09:57:02;;;;;;;23.30;15.40;;;;;;;7.80;91.26;101463.79;87893;1285;98478;-66
2021/12/16 09:59:17;;;;;;;20.90;15.60;;;;;;;7.77;91.34;101465.02;87875;1283;89675;-61
2021/12/16 10:01:29;;;;;;;21.60;15.10;;;;;;;7.79;91.36;101464.41;87883;1283;93830;-62
2021/12/16 10:03:43;;;;;;;22.00;15.20;;;;;;;7.81;91.40;101458.70;87869;1286;82558;-63
2021/12/16 10:05:56;;;;;;;21.80;15.10;;;;;;;7.79;91.29;101454.02;87899;1287;80165;-67
2021/12/16 10:08:09;;;;;;;21.90;15.20;;;;;;;7.87;91.25;101442.73;87927;1286;99226;-67
2021/12/16 10:10:25;;;;;;;23.20;15.20;;;;;;;7.85;91.47;101443.08;87893;1283;87851;-62
2021/12/16 10:12:42;;;;;;;18.90;13.60;;;;;;;7.82;91.38;101443.52;87891;1287;93746;-62
2021/12/16 10:15:05;;;;;;;20.10;14.70;;;;;;;7.83;91.50;101450.48;87879;1286;82048;-65
2021/12/16 10:17:25;;;;;;;21.40;15.60;;;;;;;7.85;91.51;101437.09;87898;1286;81367;-63
2021/12/16 10:19:38;;;;;;;17.80;14.30;;;;;;;7.89;91.41;101431.57;87846;1283;99211;-66
2021/12/16 10:21:48;;;;;;;20.60;15.60;;;;;;;7.88;91.44;101427.83;87904;1280;86309;-61
2021/12/16 10:24:01;;;;;;;21.30;15.00;;;;;;;7.90;91.39;101426.58;87858;1286;95080;-64
2021/12/16 10:26:16;;;;;;;21.50;15.50;;;;;;;7.94;91.47;101424.24;87907;1285;81954;-62
2021/12/16 10:28:29;;;;;;;20.70;15.20;;;;;;;7.96;91.51;101416.16;87896;1280;80386;-63
2021/12/16 10:30:53;;;;;;;24.50;17.10;;;;;;;7.98;91.48;101416.35;87902;1287;99189;-66
2021/12/16 10:33:12;;;;;;;22.60;16.50;;;;;;;8.00;91.49;101412.36;87920;1283;88174;-66
2021/12/16 10:35:31;;;;;;;24.20;16.50;;;;;;;8.00;91.28;101419.01;87898;1282;92855;-65
2021/12/16 10:37:51;;;;;;;24.70;16.70;;;;;;;7.93;91.31;101411.57;87902;1286;80837;-65
2021/12/16 10:40:43;;;;;;;21.40;15.90;;;;;;;7.91;91.25;101416.78;87897;1286;83222;-64
2021/12/16 10:42:54;;;;;;;24.80;16.10;;;;;;;7.92;91.37;101425.90;87156;1293;99941;-65
2021/12/16 10:45:05;;;;;;;22.60;16.00;;;;;;;7.93;91.24;101417.68;87644;1283;87027;-64
2021/12/16 10:47:17;;;;;;;21.50;15.90;;;;;;;7.94;91.32;101417.52;87916;1284;92409;-62
2021/12/16 10:49:30;;;;;;;20.90;15.10;;;;;;;7.95;91.27;101417.27;87868;1284;81745;-62
2021/12/16 10:51:42;;;;;;;22.90;16.10;;;;;;;7.89;91.42;101418.48;87904;1288;82465;-64
2021/12/16 10:54:14;;;;;;;21.20;15.40;;;;;;;7.81;91.56;101429.05;87888;1283;99221;-62
2021/12/16 10:56:28;;;;;;;23.70;15.80;;;;;;;7.78;91.63;101430.45;87847;1285;88635;-63
2021/12/16 10:58:58;;;;;;;21.30;15.90;;;;;;;7.79;91.73;101423.77;87899;1286;95456;-62
2021/12/16 11:01:07;;;;;;;21.30;15.50;;;;;;;7.85;91.65;101419.91;87878;1284;80139;-62
2021/12/16 11:03:46;;;;;;;22.10;16.90;;;;;;;7.87;91.60;101414.75;87700;1283;81254;-66
2021/12/16 11:05:55;;;;;;;21.50;15.80;;;;;;;7.94;91.52;101431.06;87906;1286;100111;-65
2021/12/16 11:08:11;;;;;;;22.50;16.10;;;;;;;7.96;91.55;101424.73;87915;1280;86196;-62
2021/12/16 11:10:25;;;;;;;19.50;15.70;;;;;;;7.95;91.58;101419.85;87848;1286;93158;-63
2021/12/16 11:12:50;;;;;;;23.00;17.40;;;;;;;7.94;91.46;101414.77;87850;1286;80680;-65
2021/12/16 11:15:08;;;;;;;23.10;17.20;;;;;;;7.91;91.56;101407.86;87893;1280;83014;-64
2021/12/16 11:17:20;;;;;;;23.10;15.70;;;;;;;7.91;91.49;101410.21;87878;1287;99491;-65
2021/12/16 11:19:55;;;;;;;22.10;16.20;;;;;;;7.88;91.35;101407.62;87920;1286;87851;-62
2021/12/16 11:22:06;;;;;;;;;;;;;;;7.83;91.41;101399.30;87933;1286;93200;-62
2021/12/16 11:24:28;;;;;;;21.00;15.30;;;;;;;7.87;91.47;101399.23;87872;1286;79531;-63
2021/12/16 11:26:42;;;;;;;20.00;15.00;;;;;;;7.95;91.37;101398.11;87888;1282;81077;-66
2021/12/16 11:28:56;;;;;;;19.90;13.90;;;;;;;7.96;91.45;101401.77;87922;1286;97943;-65
2021/12/16 11:31:10;;;;;;;18.80;14.20;;;;;;;8.00;91.47;101401.02;87888;1286;88745;-65
2021/12/16 11:33:34;;;;;;;18.80;14.40;;;;;;;8.00;91.46;101396.59;87859;1286;95122;-64
2021/12/16 11:35:49;;;;;;;18.90;14.10;;;;;;;8.08;91.46;101404.58;87867;1287;79212;-63
2021/12/16 11:38:01;;;;;;;19.60;13.40;;;;;;;8.09;91.54;101408.77;87881;1283;80886;-61
2021/12/16 11:40:12;;;;;;;20.30;14.40;;;;;;;8.21;91.51;101410.14;87890;1283;99241;-65
2021/12/16 11:42:28;;;;;;;19.10;14.40;;;;;;;8.27;91.42;101408.95;87898;1274;87632;-62
2021/12/16 11:44:44;;;;;;;17.60;13.50;;;;;;;8.32;91.48;101414.27;87875;1283;93913;-62
2021/12/16 11:46:57;;;;;;;18.50;13.90;;;;;;;8.42;91.29;101402.13;87891;1286;79644;-67
2021/12/16 11:49:10;;;;;;;16.50;13.50;;;;;;;8.52;91.38;101398.77;87923;1280;81480;-66
2021/12/16 11:51:29;;;;;;;16.30;12.80;;;;;;;8.57;91.35;101402.27;87920;1286;99637;-64